Time;durP1;ratioP1;P1;durP2;ratioP2;P2;SDS_P1;SDS_P2;PMS_P1;PMS_P2;Temp;Humidity;BMP_temperature;BMP_pressure;BME280_temperature;BME280_humidity;BME280_pressure;Samples;Min_cycle;Max_cycle;Signal;HPM_P1;HPM_P2
2022/04/08 00:01:15;;;;;;;17.02;8.27;;;;;;;;;;5076735;28;20051;-78
2022/04/08 00:03:41;;;;;;;16.80;8.38;;;;;;;;;;5076696;28;20078;-78
2022/04/08 00:06:08;;;;;;;15.68;8.32;;;;;;;;;;5076584;28;20060;-77
2022/04/08 00:08:34;;;;;;;21.95;9.10;;;;;;;;;;5076513;28;20032;-78
2022/04/08 00:10:59;;;;;;;18.98;8.45;;;;;;;;;;5076219;28;20090;-78
2022/04/08 00:13:25;;;;;;;12.80;8.10;;;;;;;;;;5076526;28;20028;-77
2022/04/08 00:15:50;;;;;;;18.67;7.85;;;;;;;;;;5076446;28;20465;-77
2022/04/08 00:18:16;;;;;;;15.63;8.00;;;;;;;;;;5077227;28;20033;-77
2022/04/08 00:20:42;;;;;;;15.38;7.75;;;;;;;;;;5077609;28;20114;-77
2022/04/08 00:23:07;;;;;;;18.42;8.15;;;;;;;;;;5076547;28;20445;-77
2022/04/08 00:25:33;;;;;;;16.77;7.95;;;;;;;;;;5076189;28;20030;-78
2022/04/08 00:27:58;;;;;;;16.98;8.13;;;;;;;;;;5058504;28;20036;-77
2022/04/08 00:30:24;;;;;;;16.35;7.57;;;;;;;;;;5076043;28;20477;-77
2022/04/08 00:32:51;;;;;;;12.77;7.63;;;;;;;;;;5076048;28;20025;-78
2022/04/08 00:35:17;;;;;;;14.18;7.18;;;;;;;;;;5076291;28;20105;-77
2022/04/08 00:37:43;;;;;;;14.23;7.22;;;;;;;;;;5064414;28;20029;-78
2022/04/08 00:40:10;;;;;;;19.75;7.72;;;;;;;;;;5075919;28;20025;-78
2022/04/08 00:42:36;;;;;;;11.73;7.00;;;;;;;;;;5058401;28;20039;-78
2022/04/08 00:45:03;;;;;;;14.82;7.45;;;;;;;;;;5075853;28;20048;-78
2022/04/08 00:47:29;;;;;;;14.15;6.80;;;;;;;;;;5075705;28;20051;-77
2022/04/08 00:49:54;;;;;;;14.38;6.78;;;;;;;;;;5075734;28;20025;-78
2022/04/08 00:52:20;;;;;;;15.68;7.03;;;;;;;;;;5041216;28;20112;-78
2022/04/08 00:54:45;;;;;;;14.48;6.35;;;;;;;;;;5058316;28;20352;-77
2022/04/08 00:57:12;;;;;;;12.23;6.43;;;;;;;;;;5075097;28;20470;-77
2022/04/08 00:59:37;;;;;;;12.68;6.15;;;;;;;;;;5060680;28;20021;-78
2022/04/08 01:02:03;;;;;;;12.82;6.10;;;;;;;;;;5057921;28;20051;-77
2022/04/08 01:04:28;;;;;;;15.63;6.15;;;;;;;;;;5057670;28;20032;-78
2022/04/08 01:06:54;;;;;;;10.23;6.05;;;;;;;;;;5075200;28;20024;-77
2022/04/08 01:09:21;;;;;;;13.48;6.60;;;;;;;;;;5041705;28;20056;-78
2022/04/08 01:11:47;;;;;;;12.25;5.85;;;;;;;;;;5075229;28;20135;-77
2022/04/08 01:14:13;;;;;;;13.27;6.00;;;;;;;;;;5057448;28;20086;-77
2022/04/08 01:16:39;;;;;;;13.35;6.30;;;;;;;;;;5075163;28;20039;-77
2022/04/08 01:19:04;;;;;;;14.13;5.78;;;;;;;;;;5079164;28;20115;-78
2022/04/08 01:21:31;;;;;;;8.73;5.50;;;;;;;;;;5075082;28;20086;-77
2022/04/08 01:23:57;;;;;;;8.30;5.60;;;;;;;;;;5074997;28;20032;-77
2022/04/08 01:26:22;;;;;;;14.52;6.05;;;;;;;;;;5057315;28;20119;-78
2022/04/08 01:28:48;;;;;;;12.00;6.20;;;;;;;;;;5074844;28;20135;-78
2022/04/08 01:31:15;;;;;;;11.07;6.07;;;;;;;;;;5057083;28;20056;-78
2022/04/08 01:33:40;;;;;;;10.45;6.10;;;;;;;;;;5074838;28;20028;-77
2022/04/08 01:36:06;;;;;;;14.00;6.38;;;;;;;;;;5057080;28;20352;-77
2022/04/08 01:38:31;;;;;;;16.40;7.28;;;;;;;;;;5075840;28;20107;-78
2022/04/08 01:40:57;;;;;;;10.15;5.97;;;;;;;;;;5057966;28;20021;-78
2022/04/08 01:43:22;;;;;;;7.78;5.50;;;;;;;;;;5074727;28;20037;-77
2022/04/08 01:45:48;;;;;;;8.55;4.68;;;;;;;;;;5074592;28;20033;-77
2022/04/08 01:48:13;;;;;;;11.93;5.25;;;;;;;;;;5074745;28;20085;-78
2022/04/08 01:50:39;;;;;;;11.95;5.72;;;;;;;;;;5074283;28;20033;-77
2022/04/08 01:53:04;;;;;;;6.32;4.60;;;;;;;;;;5074753;28;20029;-77
2022/04/08 01:55:30;;;;;;;9.25;5.05;;;;;;;;;;5057253;28;20166;-77
2022/04/08 01:57:55;;;;;;;9.98;5.03;;;;;;;;;;5074715;28;20452;-77
2022/04/08 02:00:21;;;;;;;7.15;4.97;;;;;;;;;;5079004;28;20033;-78
2022/04/08 02:02:46;;;;;;;8.63;4.68;;;;;;;;;;5074451;28;20056;-78
2022/04/08 02:05:12;;;;;;;8.82;4.82;;;;;;;;;;5074360;28;20028;-77
2022/04/08 02:07:37;;;;;;;9.93;4.55;;;;;;;;;;5073340;28;20033;-77
2022/04/08 02:10:04;;;;;;;10.65;4.82;;;;;;;;;;5074277;28;20028;-78
2022/04/08 02:12:30;;;;;;;7.85;4.88;;;;;;;;;;5074825;28;20031;-78
2022/04/08 02:14:56;;;;;;;8.02;4.57;;;;;;;;;;5074338;28;20382;-77
2022/04/08 02:17:21;;;;;;;8.30;4.30;;;;;;;;;;5074132;28;20032;-77
2022/04/08 02:19:46;;;;;;;11.02;6.00;;;;;;;;;;5076507;28;20016;-78
2022/04/08 02:22:12;;;;;;;15.07;5.07;;;;;;;;;;5056949;28;20032;-77
2022/04/08 02:24:37;;;;;;;7.75;5.18;;;;;;;;;;5074025;28;20025;-78
2022/04/08 02:27:06;;;;;;;13.02;5.15;;;;;;;;;;5039575;28;20073;-77
2022/04/08 02:29:33;;;;;;;7.95;5.30;;;;;;;;;;5056649;28;20032;-77
2022/04/08 02:31:59;;;;;;;14.02;5.55;;;;;;;;;;5074042;28;20036;-77
2022/04/08 02:34:24;;;;;;;8.60;5.18;;;;;;;;;;5073906;28;20098;-79
2022/04/08 02:36:50;;;;;;;10.95;5.43;;;;;;;;;;5056098;28;20485;-78
2022/04/08 02:39:16;;;;;;;8.90;4.93;;;;;;;;;;5073991;28;20029;-77
2022/04/08 02:41:41;;;;;;;7.00;5.03;;;;;;;;;;5074279;28;20052;-78
2022/04/08 02:44:08;;;;;;;7.65;4.93;;;;;;;;;;5073915;28;20385;-78
2022/04/08 02:46:34;;;;;;;7.45;4.43;;;;;;;;;;5056222;28;20021;-78
2022/04/08 02:49:00;;;;;;;11.60;4.53;;;;;;;;;;5055639;28;20116;-78
2022/04/08 02:51:25;;;;;;;8.65;4.55;;;;;;;;;;5073821;28;20369;-78
2022/04/08 02:53:51;;;;;;;13.88;4.90;;;;;;;;;;5074104;28;20078;-78
2022/04/08 02:56:16;;;;;;;8.20;3.88;;;;;;;;;;5073830;28;20544;-78
2022/04/08 02:58:42;;;;;;;7.35;3.85;;;;;;;;;;5073777;28;20090;-78
2022/04/08 03:01:07;;;;;;;7.70;4.20;;;;;;;;;;5075840;28;20135;-77
2022/04/08 03:03:33;;;;;;;6.05;3.90;;;;;;;;;;5075803;28;20365;-77
2022/04/08 03:05:58;;;;;;;6.28;3.95;;;;;;;;;;5073852;28;20029;-77
2022/04/08 03:08:24;;;;;;;6.88;3.65;;;;;;;;;;5073719;28;20516;-78
2022/04/08 03:10:49;;;;;;;7.72;4.03;;;;;;;;;;5074112;28;20028;-78
2022/04/08 03:13:15;;;;;;;7.13;3.85;;;;;;;;;;5072427;28;20397;-78
2022/04/08 03:15:41;;;;;;;10.18;4.43;;;;;;;;;;5055796;28;20438;-78
2022/04/08 03:18:06;;;;;;;6.32;4.00;;;;;;;;;;5073444;28;20430;-78
2022/04/08 03:20:32;;;;;;;8.43;4.32;;;;;;;;;;5077079;28;20033;-77
2022/04/08 03:22:57;;;;;;;6.45;3.67;;;;;;;;;;5080514;28;20023;-78
2022/04/08 03:25:23;;;;;;;7.30;4.10;;;;;;;;;;5077369;28;20064;-78
2022/04/08 03:27:48;;;;;;;7.13;4.03;;;;;;;;;;5077523;28;20040;-77
2022/04/08 03:30:14;;;;;;;7.25;4.00;;;;;;;;;;5077390;28;20119;-78
2022/04/08 03:32:39;;;;;;;12.40;4.40;;;;;;;;;;5059449;28;20055;-78
2022/04/08 03:35:05;;;;;;;9.00;4.00;;;;;;;;;;5077211;28;20042;-78
2022/04/08 03:37:31;;;;;;;8.75;4.28;;;;;;;;;;5077088;28;20429;-77
2022/04/08 03:39:56;;;;;;;11.20;5.28;;;;;;;;;;5059380;28;20071;-77
2022/04/08 03:42:22;;;;;;;13.45;6.05;;;;;;;;;;5078050;28;20052;-78
2022/04/08 03:44:49;;;;;;;7.20;4.43;;;;;;;;;;5081390;28;20446;-79
2022/04/08 03:47:15;;;;;;;7.28;4.72;;;;;;;;;;5076657;28;20028;-78
2022/04/08 03:49:40;;;;;;;8.13;4.75;;;;;;;;;;5058988;28;20082;-78
2022/04/08 03:52:08;;;;;;;10.43;4.90;;;;;;;;;;5076872;28;20067;-78
2022/04/08 03:54:34;;;;;;;10.90;4.88;;;;;;;;;;5076848;28;20020;-77
2022/04/08 03:57:00;;;;;;;8.57;4.20;;;;;;;;;;5058936;28;20353;-77
2022/04/08 03:59:25;;;;;;;10.85;4.82;;;;;;;;;;5076988;28;20032;-77
2022/04/08 04:01:51;;;;;;;6.32;4.60;;;;;;;;;;5076468;28;20032;-77
2022/04/08 04:04:16;;;;;;;8.68;4.97;;;;;;;;;;5078198;28;20028;-78
2022/04/08 04:06:42;;;;;;;10.57;5.40;;;;;;;;;;5076819;28;20032;-78
2022/04/08 04:09:07;;;;;;;9.27;4.80;;;;;;;;;;5076435;28;20123;-78
2022/04/08 04:11:33;;;;;;;10.05;5.07;;;;;;;;;;5058691;28;20438;-77
2022/04/08 04:13:59;;;;;;;6.18;3.80;;;;;;;;;;5076664;28;20024;-78
2022/04/08 04:16:26;;;;;;;7.35;3.72;;;;;;;;;;5076682;28;20029;-78
2022/04/08 04:18:51;;;;;;;8.15;3.63;;;;;;;;;;5076916;28;20025;-78
2022/04/08 04:21:17;;;;;;;9.05;3.72;;;;;;;;;;5076594;28;20032;-77
2022/04/08 04:23:42;;;;;;;5.93;3.33;;;;;;;;;;5060230;28;20362;-77
2022/04/08 04:26:08;;;;;;;7.32;3.58;;;;;;;;;;5076242;28;20081;-76
2022/04/08 04:28:34;;;;;;;4.47;3.28;;;;;;;;;;5076073;28;20036;-78
2022/04/08 04:30:59;;;;;;;4.82;2.90;;;;;;;;;;5057283;28;20028;-78
2022/04/08 04:33:28;;;;;;;3.90;3.28;;;;;;;;;;5058231;28;20029;-78
2022/04/08 04:35:54;;;;;;;5.88;3.00;;;;;;;;;;5076092;28;20044;-78
2022/04/08 04:38:19;;;;;;;7.93;3.00;;;;;;;;;;5058195;28;20029;-78
2022/04/08 04:40:45;;;;;;;4.88;3.20;;;;;;;;;;5058187;28;20031;-77
2022/04/08 04:43:10;;;;;;;5.50;2.70;;;;;;;;;;5041279;28;20347;-78
2022/04/08 04:45:37;;;;;;;4.57;2.78;;;;;;;;;;5059108;28;20032;-78
2022/04/08 04:48:04;;;;;;;5.28;2.85;;;;;;;;;;5075944;28;20036;-78
2022/04/08 04:50:29;;;;;;;4.10;2.70;;;;;;;;;;5075783;28;20025;-78
2022/04/08 04:52:55;;;;;;;8.85;3.20;;;;;;;;;;5075922;28;20051;-78
2022/04/08 04:55:20;;;;;;;4.68;3.00;;;;;;;;;;5075936;28;20028;-77
2022/04/08 04:57:45;;;;;;;9.27;3.55;;;;;;;;;;5075605;28;20028;-79
2022/04/08 05:00:12;;;;;;;5.47;3.50;;;;;;;;;;5075302;28;20024;-77
2022/04/08 05:02:37;;;;;;;8.60;3.33;;;;;;;;;;5075478;28;20127;-78
2022/04/08 05:05:03;;;;;;;9.10;3.55;;;;;;;;;;5078082;28;20148;-77
2022/04/08 05:07:28;;;;;;;5.15;3.25;;;;;;;;;;5077171;28;20025;-78
2022/04/08 05:09:54;;;;;;;4.57;3.05;;;;;;;;;;5075360;28;20460;-77
2022/04/08 05:12:19;;;;;;;11.55;3.10;;;;;;;;;;5075204;28;20032;-78
2022/04/08 05:14:45;;;;;;;8.27;3.50;;;;;;;;;;5075628;28;20039;-78
2022/04/08 05:17:10;;;;;;;7.90;3.92;;;;;;;;;;5075114;28;20033;-77
2022/04/08 05:19:36;;;;;;;5.80;3.17;;;;;;;;;;5075071;28;20029;-79
2022/04/08 05:22:01;;;;;;;9.25;4.22;;;;;;;;;;5057213;28;20036;-78
2022/04/08 05:24:27;;;;;;;6.55;3.00;;;;;;;;;;5074941;28;20028;-78
2022/04/08 05:26:52;;;;;;;6.07;3.38;;;;;;;;;;5077715;28;20039;-78
2022/04/08 05:29:20;;;;;;;7.35;3.47;;;;;;;;;;5074686;28;20036;-78
2022/04/08 05:31:47;;;;;;;8.55;3.47;;;;;;;;;;5074812;28;20430;-78
2022/04/08 05:34:14;;;;;;;8.50;3.55;;;;;;;;;;5057242;28;20031;-78
2022/04/08 05:36:39;;;;;;;8.55;3.72;;;;;;;;;;5074840;28;20111;-79
2022/04/08 05:39:05;;;;;;;6.57;3.60;;;;;;;;;;5074749;28;20465;-78
2022/04/08 05:41:30;;;;;;;4.63;2.95;;;;;;;;;;5074402;28;20079;-79
2022/04/08 05:43:55;;;;;;;11.30;3.15;;;;;;;;;;5075062;28;20058;-78
2022/04/08 05:46:21;;;;;;;11.73;3.20;;;;;;;;;;5076599;28;20036;-77
2022/04/08 05:48:46;;;;;;;6.53;3.22;;;;;;;;;;5061064;28;20043;-79
2022/04/08 05:51:12;;;;;;;9.88;3.60;;;;;;;;;;5074480;28;20039;-78
2022/04/08 05:53:37;;;;;;;6.30;3.33;;;;;;;;;;5074478;28;20032;-78
2022/04/08 05:56:03;;;;;;;7.65;4.05;;;;;;;;;;5056773;28;20071;-79
2022/04/08 05:58:29;;;;;;;8.95;4.00;;;;;;;;;;5074423;28;20033;-79
2022/04/08 06:00:54;;;;;;;6.75;3.28;;;;;;;;;;5074379;28;20086;-79
2022/04/08 06:03:20;;;;;;;9.35;4.82;;;;;;;;;;5074334;28;20024;-78
2022/04/08 06:05:45;;;;;;;7.50;4.50;;;;;;;;;;5074162;28;20052;-78
2022/04/08 06:08:10;;;;;;;7.43;4.10;;;;;;;;;;5077052;28;20029;-77
2022/04/08 06:10:36;;;;;;;8.55;3.80;;;;;;;;;;5074154;28;20067;-75
2022/04/08 06:13:02;;;;;;;8.68;4.72;;;;;;;;;;5073853;28;20442;-76
2022/04/08 06:15:27;;;;;;;7.95;3.78;;;;;;;;;;5056152;28;20024;-76
2022/04/08 06:17:54;;;;;;;9.60;3.95;;;;;;;;;;5073723;28;20033;-76
2022/04/08 06:20:20;;;;;;;8.23;3.60;;;;;;;;;;5074119;28;20473;-75
2022/04/08 06:22:47;;;;;;;4.60;2.92;;;;;;;;;;5074123;28;20093;-75
2022/04/08 06:25:14;;;;;;;7.05;3.30;;;;;;;;;;5040286;28;20039;-82
2022/04/08 06:27:40;;;;;;;6.55;2.80;;;;;;;;;;5057270;28;20123;-82
2022/04/08 06:30:09;;;;;;;6.65;2.65;;;;;;;;;;5056471;28;20411;-82
2022/04/08 06:32:35;;;;;;;;;;;;;;;;;;5074462;28;20434;-83
2022/04/08 06:35:01;;;;;;;6.38;2.80;;;;;;;;;;5073988;28;19958;-83
2022/04/08 06:37:30;;;;;;;7.93;2.88;;;;;;;;;;5056244;28;20075;-83
2022/04/08 06:39:55;;;;;;;5.50;2.97;;;;;;;;;;5056326;28;20044;-84
2022/04/08 06:42:21;;;;;;;4.03;2.50;;;;;;;;;;5073904;28;20466;-85
2022/04/08 06:44:47;;;;;;;7.82;4.28;;;;;;;;;;5057873;28;20040;-84
2022/04/08 06:47:13;;;;;;;7.55;3.08;;;;;;;;;;5058027;28;20430;-84
2022/04/08 06:49:43;;;;;;;4.20;3.00;;;;;;;;;;5082725;28;20032;-82
2022/04/08 06:52:09;;;;;;;8.10;3.42;;;;;;;;;;5062828;28;20083;-87
2022/04/08 06:54:35;;;;;;;8.98;5.40;;;;;;;;;;5081930;28;20127;-85
2022/04/08 06:57:00;;;;;;;10.13;4.22;;;;;;;;;;5081169;28;20067;-84
2022/04/08 06:59:26;;;;;;;12.50;6.80;;;;;;;;;;5080995;28;20040;-85
2022/04/08 07:01:51;;;;;;;5.47;2.83;;;;;;;;;;5064060;28;20024;-86
2022/04/08 07:04:17;;;;;;;6.28;2.60;;;;;;;;;;5062621;28;20355;-85
2022/04/08 07:06:42;;;;;;;7.80;3.00;;;;;;;;;;5044559;28;20024;-87
2022/04/08 07:09:07;;;;;;;7.00;3.60;;;;;;;;;;5079354;28;20374;-84
2022/04/08 07:11:34;;;;;;;9.55;5.55;;;;;;;;;;5061246;28;20028;-84
2022/04/08 07:14:00;;;;;;;8.80;3.22;;;;;;;;;;5078774;28;20464;-85
2022/04/08 07:16:25;;;;;;;7.10;2.60;;;;;;;;;;5080371;28;20089;-85
2022/04/08 07:18:51;;;;;;;7.55;3.30;;;;;;;;;;5028997;28;20115;-85
2022/04/08 07:21:18;;;;;;;8.82;5.75;;;;;;;;;;5062359;28;20090;-86
2022/04/08 07:23:44;;;;;;;7.57;2.60;;;;;;;;;;5045129;28;20040;-89
2022/04/08 07:26:09;;;;;;;4.05;2.50;;;;;;;;;;5079761;28;20025;-89
2022/04/08 07:28:35;;;;;;;5.70;2.92;;;;;;;;;;5082408;28;20445;-87
2022/04/08 07:31:00;;;;;;;2.92;2.58;;;;;;;;;;5045319;28;20029;-87
2022/04/08 07:33:26;;;;;;;10.02;5.65;;;;;;;;;;5078368;28;20028;-84
2022/04/08 07:35:52;;;;;;;8.82;5.40;;;;;;;;;;5080119;28;20028;-89
2022/04/08 07:38:19;;;;;;;5.65;2.63;;;;;;;;;;5061189;28;20039;-82
2022/04/08 07:40:45;;;;;;;6.68;3.00;;;;;;;;;;5077534;28;20073;-82
2022/04/08 07:43:10;;;;;;;6.32;3.00;;;;;;;;;;5077097;28;20025;-80
2022/04/08 07:45:36;;;;;;;8.40;3.75;;;;;;;;;;5076858;28;20353;-81
2022/04/08 07:48:01;;;;;;;5.80;3.58;;;;;;;;;;5046998;28;20036;-85
2022/04/08 07:50:27;;;;;;;7.13;3.10;;;;;;;;;;5076989;28;20024;-81
2022/04/08 07:52:53;;;;;;;11.93;2.70;;;;;;;;;;5042041;28;20025;-79
2022/04/08 07:55:20;;;;;;;3.63;2.83;;;;;;;;;;5058778;28;20028;-75
2022/04/08 07:57:46;;;;;;;8.88;4.20;;;;;;;;;;5076613;28;20028;-75
2022/04/08 08:00:16;;;;;;;5.88;3.63;;;;;;;;;;5079588;28;20055;-85
2022/04/08 08:02:42;;;;;;;5.45;2.60;;;;;;;;;;5045198;28;20028;-88
2022/04/08 08:05:09;;;;;;;9.40;5.00;;;;;;;;;;5078644;28;20532;-85
2022/04/08 08:07:45;;;;;;;13.48;3.70;;;;;;;;;;5059675;28;20032;-86
2022/04/08 08:10:14;;;;;;;6.68;3.58;;;;;;;;;;5077618;28;20028;-82
2022/04/08 08:12:40;;;;;;;9.02;4.82;;;;;;;;;;5058836;28;20450;-83
2022/04/08 08:15:06;;;;;;;9.43;3.08;;;;;;;;;;5061103;28;20020;-86
2022/04/08 08:17:32;;;;;;;5.20;3.35;;;;;;;;;;5078115;28;20039;-83
2022/04/08 08:19:57;;;;;;;15.15;8.40;;;;;;;;;;5061232;28;20033;-84
2022/04/08 08:22:23;;;;;;;17.95;9.30;;;;;;;;;;5077113;28;20035;-82
2022/04/08 08:24:49;;;;;;;13.93;8.55;;;;;;;;;;5077553;28;20032;-85
2022/04/08 08:27:15;;;;;;;7.60;3.42;;;;;;;;;;5065150;28;20024;-87
2022/04/08 08:29:40;;;;;;;8.75;4.95;;;;;;;;;;5062585;28;20032;-86
2022/04/08 08:32:06;;;;;;;5.35;2.72;;;;;;;;;;5080229;28;20035;-85
2022/04/08 08:34:31;;;;;;;12.85;8.38;;;;;;;;;;5065789;28;20358;-87
2022/04/08 08:36:59;;;;;;;5.72;3.80;;;;;;;;;;5078780;28;20503;-87
2022/04/08 08:39:26;;;;;;;6.15;3.25;;;;;;;;;;5078136;28;20369;-84
2022/04/08 08:41:51;;;;;;;6.78;3.75;;;;;;;;;;5060190;28;20201;-85
2022/04/08 08:44:19;;;;;;;5.80;3.00;;;;;;;;;;5030892;28;20476;-83
2022/04/08 08:46:44;;;;;;;8.18;5.07;;;;;;;;;;5078112;28;20018;-83
2022/04/08 08:49:11;;;;;;;9.10;5.18;;;;;;;;;;5096656;28;20037;-83
2022/04/08 08:51:37;;;;;;;8.05;2.67;;;;;;;;;;5062796;28;20095;-83
2022/04/08 08:54:04;;;;;;;6.60;4.25;;;;;;;;;;5063722;28;20029;-83
2022/04/08 08:56:29;;;;;;;8.65;4.45;;;;;;;;;;5074452;28;20028;-85
2022/04/08 08:58:55;;;;;;;8.32;4.03;;;;;;;;;;5064621;28;20044;-87
2022/04/08 09:01:20;;;;;;;13.63;4.60;;;;;;;;;;5082030;28;20025;-87
2022/04/08 09:03:46;;;;;;;7.82;3.20;;;;;;;;;;5079659;28;20024;-83
2022/04/08 09:06:11;;;;;;;12.10;5.55;;;;;;;;;;5076168;28;20029;-83
2022/04/08 09:08:38;;;;;;;8.65;3.40;;;;;;;;;;5046075;28;20406;-85
2022/04/08 09:11:04;;;;;;;6.32;2.70;;;;;;;;;;5059097;28;20032;-85
2022/04/08 09:13:29;;;;;;;4.82;2.75;;;;;;;;;;5074776;28;20434;-86
2022/04/08 09:15:56;;;;;;;6.78;2.97;;;;;;;;;;5042622;28;20154;-85
2022/04/08 09:18:22;;;;;;;18.23;11.95;;;;;;;;;;5058439;28;20028;-83
2022/04/08 09:20:49;;;;;;;10.05;6.78;;;;;;;;;;5057863;28;20462;-83
2022/04/08 09:23:18;;;;;;;16.67;8.57;;;;;;;;;;5059158;28;20013;-82
2022/04/08 09:25:43;;;;;;;7.03;5.13;;;;;;;;;;5042029;28;20029;-88
2022/04/08 09:28:14;;;;;;;9.93;5.97;;;;;;;;;;5076437;28;20338;-85
2022/04/08 09:30:47;;;;;;;8.05;4.05;;;;;;;;;;5075379;28;20099;-84
2022/04/08 09:33:18;;;;;;;5.13;3.05;;;;;;;;;;5057480;28;20456;-83
2022/04/08 09:35:44;;;;;;;9.35;5.43;;;;;;;;;;5057835;28;20089;-84
2022/04/08 09:38:10;;;;;;;13.43;5.05;;;;;;;;;;5075437;28;20469;-82
2022/04/08 09:40:39;;;;;;;9.40;4.97;;;;;;;;;;5074847;28;20070;-83
2022/04/08 09:43:05;;;;;;;12.93;8.40;;;;;;;;;;5057604;28;20458;-82
2022/04/08 09:45:31;;;;;;;12.90;7.63;;;;;;;;;;5042688;28;20036;-82
2022/04/08 09:48:02;;;;;;;16.10;7.70;;;;;;;;;;5059650;28;20134;-81
2022/04/08 09:50:28;;;;;;;10.50;5.78;;;;;;;;;;5060992;28;20058;-84
2022/04/08 09:52:55;;;;;;;17.15;8.45;;;;;;;;;;5060170;28;20024;-81
2022/04/08 09:55:25;;;;;;;15.00;6.82;;;;;;;;;;5057341;28;20036;-84
2022/04/08 09:57:53;;;;;;;;;;;;;;;;;;5041581;28;20070;-81
2022/04/08 10:00:18;;;;;;;14.73;9.10;;;;;;;;;;5056769;28;19927;-83
2022/04/08 10:02:45;;;;;;;10.82;4.53;;;;;;;;;;5040640;28;20430;-84
2022/04/08 10:05:10;;;;;;;9.52;4.05;;;;;;;;;;5075123;28;20021;-84
2022/04/08 10:07:36;;;;;;;12.05;6.90;;;;;;;;;;5060786;28;20445;-81
2022/04/08 10:10:31;;;;;;;8.07;2.78;;;;;;;;;;5040170;28;20027;-78
2022/04/08 10:13:19;;;;;;;4.13;2.17;;;;;;;;;;5056859;28;20028;-78
2022/04/08 10:15:50;;;;;;;8.20;2.70;;;;;;;;;;5074447;28;20077;-81
2022/04/08 10:18:16;;;;;;;8.38;3.20;;;;;;;;;;5055795;28;20050;-82
2022/04/08 10:20:44;;;;;;;4.95;2.03;;;;;;;;;;5056407;28;20081;-81
2022/04/08 10:23:10;;;;;;;8.75;2.58;;;;;;;;;;5056732;28;20035;-79
2022/04/08 10:25:42;;;;;;;7.45;2.42;;;;;;;;;;5040415;28;20473;-79
2022/04/08 10:28:08;;;;;;;6.50;2.33;;;;;;;;;;5057935;28;20032;-80
2022/04/08 10:30:36;;;;;;;4.18;2.42;;;;;;;;;;5039304;28;20063;-80
2022/04/08 10:33:03;;;;;;;5.15;2.40;;;;;;;;;;5055958;28;20544;-80
2022/04/08 10:35:29;;;;;;;4.47;2.38;;;;;;;;;;5056430;28;20043;-81
2022/04/08 10:37:55;;;;;;;6.22;2.33;;;;;;;;;;5055627;28;20040;-80
2022/04/08 10:40:21;;;;;;;6.07;2.38;;;;;;;;;;5074112;28;20048;-79
2022/04/08 10:43:02;;;;;;;5.97;2.80;;;;;;;;;;5073745;28;20045;-80
2022/04/08 10:45:27;;;;;;;15.63;8.35;;;;;;;;;;5073701;28;20028;-78
2022/04/08 10:47:53;;;;;;;5.90;2.55;;;;;;;;;;5074293;28;20032;-78
2022/04/08 10:50:29;;;;;;;5.70;2.22;;;;;;;;;;5074054;28;20071;-79
2022/04/08 10:53:10;;;;;;;5.43;2.67;;;;;;;;;;5057741;28;20046;-80
2022/04/08 10:56:04;;;;;;;5.30;3.13;;;;;;;;;;5057926;28;20032;-78
2022/04/08 10:58:50;;;;;;;3.70;2.17;;;;;;;;;;5074569;28;20028;-80
2022/04/08 11:01:18;;;;;;;6.60;2.70;;;;;;;;;;5072657;28;20040;-80
2022/04/08 11:03:48;;;;;;;10.13;2.47;;;;;;;;;;5073784;28;20094;-79
2022/04/08 11:06:15;;;;;;;4.60;2.65;;;;;;;;;;5058262;28;20024;-79
2022/04/08 11:08:40;;;;;;;4.35;2.75;;;;;;;;;;5074583;28;20025;-78
2022/04/08 11:11:07;;;;;;;7.30;3.17;;;;;;;;;;5073706;28;20070;-79
2022/04/08 11:13:32;;;;;;;9.68;2.65;;;;;;;;;;5073187;28;20074;-78
2022/04/08 11:15:57;;;;;;;3.92;2.58;;;;;;;;;;5072894;28;20400;-80
2022/04/08 11:18:26;;;;;;;5.80;2.40;;;;;;;;;;5073531;28;20433;-80
2022/04/08 11:20:52;;;;;;;5.00;2.55;;;;;;;;;;5073669;28;20021;-79
2022/04/08 11:23:28;;;;;;;5.88;2.80;;;;;;;;;;5073675;28;20419;-78
2022/04/08 11:25:54;;;;;;;7.55;2.60;;;;;;;;;;5073569;28;20029;-78
2022/04/08 11:28:22;;;;;;;6.65;2.60;;;;;;;;;;5074230;28;20082;-80
2022/04/08 11:30:55;;;;;;;6.65;2.60;;;;;;;;;;5055625;28;20056;-79
2022/04/08 11:33:21;;;;;;;6.70;2.55;;;;;;;;;;5073538;28;20036;-78
2022/04/08 11:35:47;;;;;;;6.78;2.65;;;;;;;;;;5039205;28;20025;-79
2022/04/08 11:38:16;;;;;;;7.88;2.67;;;;;;;;;;5055830;28;20362;-78
2022/04/08 11:40:42;;;;;;;10.57;2.80;;;;;;;;;;5057494;28;20102;-78
2022/04/08 11:43:08;;;;;;;4.00;2.25;;;;;;;;;;5059193;28;20461;-78
2022/04/08 11:45:33;;;;;;;4.40;2.45;;;;;;;;;;5058972;28;20021;-79
2022/04/08 11:47:59;;;;;;;4.85;2.50;;;;;;;;;;5059809;28;20025;-78
2022/04/08 11:50:28;;;;;;;4.70;2.50;;;;;;;;;;5059274;28;20028;-79
2022/04/08 11:52:57;;;;;;;3.90;2.55;;;;;;;;;;5059076;28;20056;-79
2022/04/08 11:55:24;;;;;;;5.75;2.70;;;;;;;;;;5059087;28;20028;-80
2022/04/08 11:57:49;;;;;;;5.05;2.60;;;;;;;;;;5076679;28;20549;-79
2022/04/08 12:00:15;;;;;;;3.28;2.30;;;;;;;;;;5076389;28;20131;-79
2022/04/08 12:02:41;;;;;;;7.63;2.90;;;;;;;;;;5076703;28;20029;-78
2022/04/08 12:05:07;;;;;;;5.18;2.50;;;;;;;;;;5058816;28;20030;-80
2022/04/08 12:07:33;;;;;;;7.93;2.92;;;;;;;;;;5077943;28;20020;-77
2022/04/08 12:09:59;;;;;;;8.35;2.80;;;;;;;;;;5078081;28;20047;-79
2022/04/08 12:12:25;;;;;;;6.75;2.58;;;;;;;;;;5042222;28;20056;-78
2022/04/08 12:14:51;;;;;;;6.22;2.80;;;;;;;;;;5058342;28;20487;-78
2022/04/08 12:17:16;;;;;;;14.23;2.55;;;;;;;;;;5076711;28;20056;-78
2022/04/08 12:19:42;;;;;;;9.60;2.53;;;;;;;;;;5076613;28;20028;-78
2022/04/08 12:22:12;;;;;;;4.50;2.55;;;;;;;;;;5076441;28;20382;-80
2022/04/08 12:24:44;;;;;;;4.75;2.60;;;;;;;;;;5058812;28;20048;-78
2022/04/08 12:27:17;;;;;;;4.82;2.30;;;;;;;;;;5078085;28;20070;-79
2022/04/08 12:29:43;;;;;;;6.55;2.40;;;;;;;;;;5078398;28;20044;-78
2022/04/08 12:32:15;;;;;;;5.22;2.47;;;;;;;;;;5058241;28;20438;-77
2022/04/08 12:34:43;;;;;;;3.83;2.35;;;;;;;;;;5076801;28;20020;-78
2022/04/08 12:37:09;;;;;;;12.90;2.78;;;;;;;;;;5076033;28;20032;-78
2022/04/08 12:39:34;;;;;;;7.57;2.70;;;;;;;;;;5075894;28;20033;-78
2022/04/08 12:42:00;;;;;;;4.93;2.33;;;;;;;;;;5058028;28;20043;-78
2022/04/08 12:44:26;;;;;;;3.80;2.38;;;;;;;;;;5025316;28;20111;-78
2022/04/08 12:46:52;;;;;;;6.05;2.55;;;;;;;;;;5077805;28;20028;-78
2022/04/08 12:49:17;;;;;;;5.43;2.33;;;;;;;;;;5060308;28;20070;-78
2022/04/08 12:51:43;;;;;;;3.85;2.20;;;;;;;;;;5074995;28;20048;-78
2022/04/08 12:54:09;;;;;;;5.50;2.60;;;;;;;;;;5075815;28;20466;-78
2022/04/08 12:56:34;;;;;;;5.57;2.78;;;;;;;;;;5080263;28;20054;-78
2022/04/08 12:59:01;;;;;;;5.97;2.13;;;;;;;;;;5040980;28;20082;-78
2022/04/08 13:01:27;;;;;;;4.22;2.17;;;;;;;;;;5079468;28;20052;-78
2022/04/08 13:03:53;;;;;;;6.78;2.28;;;;;;;;;;5078779;28;20042;-79
2022/04/08 13:06:18;;;;;;;4.78;2.40;;;;;;;;;;5076792;28;20110;-77
2022/04/08 13:08:45;;;;;;;7.75;2.55;;;;;;;;;;5078088;28;20017;-78
2022/04/08 13:11:10;;;;;;;6.75;2.33;;;;;;;;;;5077047;28;20107;-77
2022/04/08 13:13:37;;;;;;;9.20;2.60;;;;;;;;;;5057254;28;20473;-77
2022/04/08 13:16:03;;;;;;;8.18;2.58;;;;;;;;;;5075266;28;20025;-80
2022/04/08 13:18:29;;;;;;;4.70;2.15;;;;;;;;;;5057290;28;20028;-77
2022/04/08 13:20:54;;;;;;;4.55;2.42;;;;;;;;;;5075306;28;20029;-78
2022/04/08 13:23:20;;;;;;;4.60;2.20;;;;;;;;;;5075148;28;20509;-77
2022/04/08 13:25:45;;;;;;;5.75;2.10;;;;;;;;;;5074913;28;20028;-78
2022/04/08 13:28:13;;;;;;;3.60;2.20;;;;;;;;;;5056453;28;20464;-77
2022/04/08 13:30:39;;;;;;;3.72;2.25;;;;;;;;;;5075024;28;20028;-77
2022/04/08 13:33:05;;;;;;;4.00;2.10;;;;;;;;;;5073576;28;20031;-77
2022/04/08 13:35:30;;;;;;;5.13;2.67;;;;;;;;;;5074216;28;20111;-77
2022/04/08 13:37:56;;;;;;;6.13;2.63;;;;;;;;;;5074228;28;20040;-80
2022/04/08 13:40:23;;;;;;;5.57;2.63;;;;;;;;;;5073001;28;20083;-78
2022/04/08 13:42:49;;;;;;;7.60;2.80;;;;;;;;;;5056356;28;20139;-79
2022/04/08 13:45:14;;;;;;;5.45;2.60;;;;;;;;;;5074895;28;20115;-77
2022/04/08 13:47:40;;;;;;;8.88;2.40;;;;;;;;;;5074379;28;20430;-77
2022/04/08 13:50:05;;;;;;;8.80;2.28;;;;;;;;;;5058413;28;20021;-79
2022/04/08 13:52:31;;;;;;;6.25;2.90;;;;;;;;;;5073582;28;20036;-78
2022/04/08 13:54:57;;;;;;;7.57;2.20;;;;;;;;;;5073986;28;20028;-78
2022/04/08 13:57:23;;;;;;;5.30;2.70;;;;;;;;;;5073518;28;20060;-78
2022/04/08 13:59:48;;;;;;;6.70;2.30;;;;;;;;;;5073463;28;20181;-78
2022/04/08 14:02:14;;;;;;;4.85;2.08;;;;;;;;;;5074073;28;20033;-79
2022/04/08 14:04:41;;;;;;;6.97;2.20;;;;;;;;;;5074142;28;20121;-78
2022/04/08 14:07:06;;;;;;;4.15;2.38;;;;;;;;;;5074272;28;20438;-78
2022/04/08 14:09:32;;;;;;;10.90;2.40;;;;;;;;;;5074233;28;20035;-78
2022/04/08 14:11:57;;;;;;;8.27;2.30;;;;;;;;;;5074244;28;20021;-78
2022/04/08 14:14:23;;;;;;;3.72;2.78;;;;;;;;;;5074116;28;20024;-77
2022/04/08 14:16:48;;;;;;;4.72;2.40;;;;;;;;;;5074274;28;20035;-78
2022/04/08 14:19:14;;;;;;;3.20;2.25;;;;;;;;;;5074140;28;20040;-77
2022/04/08 14:21:39;;;;;;;5.50;2.60;;;;;;;;;;5074058;28;20020;-78
2022/04/08 14:24:05;;;;;;;6.10;2.40;;;;;;;;;;5039640;28;20032;-78
2022/04/08 14:26:30;;;;;;;7.47;2.35;;;;;;;;;;5074354;28;20349;-78
2022/04/08 14:28:56;;;;;;;4.80;2.53;;;;;;;;;;5074269;28;20115;-78
2022/04/08 14:31:21;;;;;;;6.05;2.30;;;;;;;;;;5074146;28;20086;-78
2022/04/08 14:33:47;;;;;;;4.68;2.00;;;;;;;;;;5073951;28;20103;-77
2022/04/08 14:36:12;;;;;;;3.03;2.10;;;;;;;;;;5073987;28;20097;-77